Mount Storm, West Virginia
Current Conditions -  °F | °C
As of 5:15 AM on Tuesday 27 Jan 2015 (Local Time) from KW99 Reporting Station
Overcast Overcast  
Wind Chill: 24°   Ceiling: 9000
Heat Index: 24°   Visibility: 10mi
Dew Point: 22°   Wind: 0mph
Humidity: 91%   Direction: NA
Pressure: 29.8"   Gusts: NA
Location:  39.28°N, 79.24°W
Report Text: KW99 271015Z AUTO 00000KT 10SM OVC090 M05/M06 A2980 RMK AO2 T10461058
Loading
Personal Weather Stations






























Interactive Weather Map New forecast layout! Learn more

10-Day Weather Forecast

Advertisements
Track Severe Weather on mobile